Time;durP1;ratioP1;P1;durP2;ratioP2;P2;SDS_P1;SDS_P2;PMS_P1;PMS_P2;Temp;Humidity;BMP_temperature;BMP_pressure;BME280_temperature;BME280_humidity;BME280_pressure;Samples;Min_cycle;Max_cycle;Signal;HPM_P1;HPM_P2
2023/01/15 00:02:22;;;;;;;62.83;6.45;;;;;;;9.15;100.00;96755.66;4993626;28;20456;-56
2023/01/15 00:04:50;;;;;;;77.80;7.00;;;;;;;8.82;100.00;96757.06;4989187;28;20026;-56
2023/01/15 00:07:15;;;;;;;61.38;5.53;;;;;;;8.84;100.00;96746.66;4989326;28;20029;-54
2023/01/15 00:09:41;;;;;;;66.25;6.20;;;;;;;8.86;100.00;96747.47;4992413;28;20025;-55
2023/01/15 00:12:06;;;;;;;61.92;5.90;;;;;;;8.90;100.00;96743.97;4989022;28;20677;-55
2023/01/15 00:14:31;;;;;;;50.78;5.40;;;;;;;8.95;100.00;96725.75;4991326;28;20030;-56
2023/01/15 00:16:57;;;;;;;64.88;6.10;;;;;;;9.32;100.00;96725.06;4990417;28;20044;-55
2023/01/15 00:19:22;;;;;;;55.53;5.72;;;;;;;9.15;100.00;96719.31;4990292;28;20117;-57
2023/01/15 00:21:47;;;;;;;61.85;6.03;;;;;;;9.16;100.00;96711.53;4987110;28;20125;-53
2023/01/15 00:29:40;;;;;;;65.05;6.10;;;;;;;9.08;100.00;96705.63;4989843;28;20090;-55
2023/01/15 00:32:07;;;;;;;54.50;5.45;;;;;;;9.20;100.00;96710.59;4988949;28;20050;-56
2023/01/15 00:34:33;;;;;;;52.40;5.18;;;;;;;9.47;100.00;96703.16;4992085;28;20030;-55
2023/01/15 00:36:59;;;;;;;52.58;5.30;;;;;;;9.46;100.00;96709.22;4990229;28;20065;-55
2023/01/15 00:39:25;;;;;;;62.95;6.10;;;;;;;9.23;100.00;96700.16;4990213;28;20098;-57
2023/01/15 00:41:51;;;;;;;51.42;4.68;;;;;;;9.48;100.00;96701.44;4989822;28;20073;-56
2023/01/15 00:44:17;;;;;;;50.63;5.25;;;;;;;9.40;100.00;96695.53;4987724;28;20112;-53
2023/01/15 00:46:42;;;;;;;44.83;4.55;;;;;;;9.48;100.00;96686.72;4991293;28;20034;-54
2023/01/15 00:49:08;;;;;;;50.13;4.95;;;;;;;9.56;100.00;96690.88;4991477;28;20080;-54
2023/01/15 00:51:34;;;;;;;58.38;6.00;;;;;;;9.58;100.00;96684.75;4994840;28;20045;-54
2023/01/15 00:54:00;;;;;;;50.17;5.05;;;;;;;9.57;100.00;96671.84;4993528;28;20045;-55
2023/01/15 00:56:25;;;;;;;50.45;4.65;;;;;;;9.53;100.00;96675.41;4995253;28;20046;-53
2023/01/15 00:58:51;;;;;;;47.53;4.78;;;;;;;9.48;100.00;96678.06;4994825;28;20421;-53
2023/01/15 01:01:16;;;;;;;54.22;5.07;;;;;;;9.65;100.00;96672.50;4991595;28;20472;-55
2023/01/15 01:03:42;;;;;;;59.70;5.63;;;;;;;9.69;100.00;96666.38;4993544;28;20113;-55
2023/01/15 01:06:09;;;;;;;45.63;4.45;;;;;;;9.74;100.00;96672.34;4991760;28;20629;-54
2023/01/15 01:08:34;;;;;;;49.85;4.80;;;;;;;9.74;100.00;96667.16;4992677;28;20030;-53
2023/01/15 01:11:01;;;;;;;48.88;4.63;;;;;;;9.73;100.00;96667.19;4992564;28;20038;-54
2023/01/15 01:13:27;;;;;;;49.72;4.57;;;;;;;9.76;100.00;96669.69;4992542;28;20050;-53
2023/01/15 01:15:52;;;;;;;60.15;5.57;;;;;;;10.05;100.00;96665.59;4992679;28;20690;-56
2023/01/15 01:18:17;;;;;;;46.88;4.63;;;;;;;9.99;100.00;96657.97;4990857;28;20514;-54
2023/01/15 01:20:43;;;;;;;50.65;5.00;;;;;;;10.01;100.00;96662.25;4995692;28;20038;-54
2023/01/15 01:23:08;;;;;;;39.95;4.18;;;;;;;10.14;100.00;96670.59;4976819;28;20033;-55
2023/01/15 01:25:33;;;;;;;46.03;4.75;;;;;;;10.21;100.00;96660.06;4990686;28;20038;-55
2023/01/15 01:27:59;;;;;;;62.47;5.53;;;;;;;10.46;100.00;96656.94;4995589;28;20076;-53
2023/01/15 01:30:24;;;;;;;56.08;5.03;;;;;;;10.33;100.00;96661.53;4993400;28;20026;-53
2023/01/15 01:32:49;;;;;;;37.97;4.22;;;;;;;10.24;100.00;96652.22;4990036;28;20022;-53
2023/01/15 01:35:15;;;;;;;40.08;3.95;;;;;;;10.55;100.00;96634.13;4992116;28;20025;-53
2023/01/15 01:37:40;;;;;;;45.40;4.50;;;;;;;10.45;100.00;96648.25;4994030;28;20781;-53
2023/01/15 01:40:06;;;;;;;49.38;5.03;;;;;;;10.52;100.00;96641.16;4992306;28;20034;-55
2023/01/15 01:42:31;;;;;;;49.47;4.47;;;;;;;10.35;100.00;96633.75;4992973;28;20066;-54
2023/01/15 01:45:00;;;;;;;44.25;4.50;;;;;;;10.68;100.00;96634.69;4993346;28;20600;-53
2023/01/15 01:47:28;;;;;;;42.53;4.10;;;;;;;10.76;100.00;96628.44;4990563;28;20532;-53
2023/01/15 01:50:00;;;;;;;48.70;4.55;;;;;;;10.83;100.00;96616.97;4991505;28;20045;-54
2023/01/15 01:52:32;;;;;;;44.72;4.63;;;;;;;10.94;100.00;96621.88;4991501;28;20041;-53
2023/01/15 01:54:58;;;;;;;39.63;3.97;;;;;;;10.76;100.00;96612.84;4991953;28;20395;-54
2023/01/15 01:57:24;;;;;;;57.60;5.20;;;;;;;10.85;100.00;96609.13;4991995;28;20046;-53
2023/01/15 01:59:50;;;;;;;60.88;5.88;;;;;;;10.64;100.00;96598.41;4992645;28;20044;-54
2023/01/15 02:02:19;;;;;;;54.03;5.20;;;;;;;10.72;100.00;96586.06;4991039;28;20096;-53
2023/01/15 02:04:45;;;;;;;47.35;4.50;;;;;;;10.93;100.00;96595.03;4992869;28;20032;-53
2023/01/15 02:07:11;;;;;;;53.65;4.88;;;;;;;10.62;100.00;96589.81;4991140;28;20031;-53
2023/01/15 02:09:36;;;;;;;54.47;4.88;;;;;;;10.70;100.00;96592.19;4993144;28;20064;-55
2023/01/15 02:12:13;;;;;;;39.08;3.97;;;;;;;10.84;100.00;96584.88;4992147;28;20040;-55
2023/01/15 02:14:50;;;;;;;49.50;4.57;;;;;;;10.99;100.00;96578.38;4991909;28;20118;-55
2023/01/15 02:17:35;;;;;;;45.75;4.53;;;;;;;10.97;100.00;96584.53;4994001;28;20145;-56
2023/01/15 02:20:08;;;;;;;47.40;4.55;;;;;;;10.83;100.00;96574.53;4992596;28;20034;-55
2023/01/15 02:22:42;;;;;;;43.58;3.97;;;;;;;11.15;100.00;96572.75;4991455;28;20073;-58
2023/01/15 02:25:17;;;;;;;46.97;4.32;;;;;;;11.03;100.00;96571.38;4979581;28;20527;-58
2023/01/15 02:27:48;;;;;;;51.10;4.75;;;;;;;11.26;100.00;96562.03;4992252;28;20045;-55
2023/01/15 02:30:28;;;;;;;32.72;3.45;;;;;;;10.94;100.00;96552.53;4990270;28;20056;-55
2023/01/15 02:33:13;;;;;;;41.85;3.97;;;;;;;11.20;100.00;96553.53;4992385;28;20025;-53
2023/01/15 02:35:46;;;;;;;54.95;4.80;;;;;;;11.41;100.00;96561.59;4973240;28;20044;-55
2023/01/15 02:38:14;;;;;;;;;;;;;;;11.20;100.00;96557.88;4992414;28;20030;-57
2023/01/15 02:40:42;;;;;;;50.17;4.40;;;;;;;11.06;100.00;96558.25;4990234;28;19917;-56
2023/01/15 02:43:10;;;;;;;45.63;4.40;;;;;;;11.39;100.00;96550.38;4993234;28;20026;-54
2023/01/15 02:45:40;;;;;;;44.33;4.07;;;;;;;11.19;100.00;96549.22;4990711;28;20068;-54
2023/01/15 02:48:11;;;;;;;39.90;3.83;;;;;;;11.10;100.00;96546.03;4992178;28;20645;-56
2023/01/15 02:50:41;;;;;;;48.45;4.57;;;;;;;11.39;100.00;96539.97;4990462;28;20045;-55
2023/01/15 02:53:12;;;;;;;50.60;4.70;;;;;;;11.28;100.00;96542.88;4993173;28;20688;-54
2023/01/15 02:55:43;;;;;;;42.63;3.97;;;;;;;11.23;100.00;96536.97;4991811;28;20052;-55
2023/01/15 02:58:13;;;;;;;52.10;4.88;;;;;;;11.56;100.00;96531.66;4991479;28;20026;-57
2023/01/15 03:00:44;;;;;;;35.53;3.75;;;;;;;11.70;100.00;96522.56;4992113;28;20030;-54
2023/01/15 03:03:18;;;;;;;44.13;4.47;;;;;;;11.40;100.00;96533.03;4990575;28;20038;-56
2023/01/15 03:06:22;;;;;;;38.20;3.75;;;;;;;11.51;100.00;96519.66;4991366;28;20273;-52
2023/01/15 03:08:49;;;;;;;41.13;4.40;;;;;;;11.78;100.00;96512.75;4991670;28;20070;-54
2023/01/15 03:11:17;;;;;;;44.65;4.32;;;;;;;12.15;100.00;96500.31;4991765;28;20848;-54
2023/01/15 03:14:05;;;;;;;39.97;4.28;;;;;;;12.27;100.00;96496.41;4990048;28;20065;-54
2023/01/15 03:16:39;;;;;;;50.88;4.90;;;;;;;12.60;100.00;96497.91;4990807;28;20046;-55
2023/01/15 03:19:07;;;;;;;39.90;4.20;;;;;;;11.75;100.00;96504.16;4990784;28;20096;-55
2023/01/15 03:21:52;;;;;;;47.10;4.28;;;;;;;11.99;100.00;96494.69;4990976;28;20101;-55
2023/01/15 03:24:27;;;;;;;52.70;5.18;;;;;;;12.16;100.00;96498.53;4983251;28;20034;-53
2023/01/15 03:26:53;;;;;;;46.78;4.50;;;;;;;12.23;100.00;96502.63;4989712;28;20119;-53
2023/01/15 03:29:20;;;;;;;60.95;5.35;;;;;;;12.39;100.00;96499.50;4990889;28;20106;-54
2023/01/15 03:31:45;;;;;;;40.42;3.78;;;;;;;11.73;100.00;96499.00;4989368;28;20045;-53
2023/01/15 03:34:11;;;;;;;38.80;3.92;;;;;;;11.94;100.00;96494.00;4992095;28;20058;-55
2023/01/15 03:36:37;;;;;;;44.42;4.60;;;;;;;12.00;100.00;96488.59;4989841;28;20039;-53
2023/01/15 03:39:04;;;;;;;44.58;4.53;;;;;;;12.26;100.00;96484.28;4991314;28;20951;-53
2023/01/15 03:41:29;;;;;;;52.78;4.78;;;;;;;12.96;100.00;96486.19;4990502;28;20420;-56
2023/01/15 03:44:13;;;;;;;42.45;3.90;;;;;;;12.48;100.00;96489.59;4990688;28;20027;-54
2023/01/15 03:46:44;;;;;;;53.17;5.00;;;;;;;12.02;100.00;96484.19;4990291;28;20251;-56
2023/01/15 03:49:37;;;;;;;40.23;3.67;;;;;;;12.20;100.00;96484.50;4991796;28;20037;-53
2023/01/15 03:52:21;;;;;;;42.55;4.22;;;;;;;12.45;100.00;96486.25;4991786;28;20598;-54
2023/01/15 03:54:55;;;;;;;51.88;4.72;;;;;;;12.44;100.00;96487.16;4991742;28;20030;-56
2023/01/15 03:57:20;;;;;;;47.13;4.50;;;;;;;12.14;100.00;96484.72;4992063;28;20192;-54
2023/01/15 03:59:53;;;;;;;68.65;6.25;;;;;;;12.19;100.00;96482.78;4990374;28;20109;-54
2023/01/15 04:02:20;;;;;;;46.20;4.45;;;;;;;12.52;100.00;96477.31;4990003;28;20074;-53
2023/01/15 04:04:46;;;;;;;50.25;4.85;;;;;;;12.35;100.00;96483.97;4990737;28;20034;-56
2023/01/15 04:07:12;;;;;;;37.92;4.20;;;;;;;13.00;100.00;96475.56;4989634;28;20042;-55
2023/01/15 04:09:39;;;;;;;55.15;5.30;;;;;;;12.46;100.00;96467.94;4993224;28;20026;-54
2023/01/15 04:12:05;;;;;;;49.13;4.90;;;;;;;12.47;100.00;96471.41;4992347;28;20100;-55
2023/01/15 04:14:32;;;;;;;37.65;3.85;;;;;;;13.21;100.00;96478.28;4993241;28;20029;-53
2023/01/15 04:16:57;;;;;;;51.05;5.07;;;;;;;13.13;100.00;96465.53;4991653;28;20073;-53
2023/01/15 04:19:23;;;;;;;40.20;4.13;;;;;;;12.75;100.00;96468.66;4995726;28;20714;-53
2023/01/15 04:21:48;;;;;;;41.75;3.90;;;;;;;12.56;100.00;96468.47;4993619;28;20503;-56
2023/01/15 04:24:13;;;;;;;38.85;4.07;;;;;;;12.89;100.00;96467.31;4994193;28;20030;-53
2023/01/15 04:26:39;;;;;;;40.53;4.00;;;;;;;12.70;100.00;96456.69;4992817;28;20555;-53
2023/01/15 04:29:04;;;;;;;52.08;4.93;;;;;;;12.92;100.00;96453.28;4993364;28;20699;-55
2023/01/15 04:31:32;;;;;;;42.65;4.43;;;;;;;13.37;100.00;96451.59;4992897;28;20034;-53
2023/01/15 04:33:58;;;;;;;39.63;3.95;;;;;;;12.64;100.00;96442.13;4993822;28;20034;-53
2023/01/15 04:36:23;;;;;;;31.67;3.63;;;;;;;12.37;100.00;96453.47;4993673;28;20065;-53
2023/01/15 04:38:48;;;;;;;37.15;3.83;;;;;;;12.78;100.00;96446.84;4996552;28;20017;-54
2023/01/15 04:44:07;;;;;;;41.53;4.05;;;;;;;13.30;100.00;96450.13;4993443;28;20041;-53
2023/01/15 04:46:38;;;;;;;40.55;4.22;;;;;;;12.95;100.00;96429.69;4991942;28;20088;-56
2023/01/15 04:49:07;;;;;;;42.73;4.17;;;;;;;12.80;100.00;96426.75;4992823;28;20026;-53
2023/01/15 04:51:32;;;;;;;47.08;4.90;;;;;;;12.34;100.00;96421.47;4992411;28;20092;-54
2023/01/15 04:54:01;;;;;;;40.33;4.10;;;;;;;12.57;100.00;96425.84;4994898;28;20033;-54
2023/01/15 04:56:26;;;;;;;58.00;5.47;;;;;;;12.99;100.00;96418.22;4992764;28;20041;-56
2023/01/15 04:58:52;;;;;;;41.53;4.30;;;;;;;12.72;100.00;96420.97;4990518;28;20069;-54
2023/01/15 05:01:18;;;;;;;38.83;4.10;;;;;;;13.23;100.00;96423.41;4992438;28;20034;-54
2023/01/15 05:03:44;;;;;;;39.72;4.22;;;;;;;13.80;100.00;96415.06;4992465;28;20022;-56
2023/01/15 05:06:10;;;;;;;42.00;3.83;;;;;;;12.92;100.00;96398.50;4991390;28;20040;-55
2023/01/15 05:08:36;;;;;;;44.33;4.55;;;;;;;12.69;100.00;96403.66;4995175;28;20503;-55
2023/01/15 05:11:03;;;;;;;34.63;3.53;;;;;;;12.89;100.00;96400.28;4994573;28;20129;-56
2023/01/15 05:13:32;;;;;;;42.58;4.40;;;;;;;13.41;100.00;96401.75;4992298;28;20034;-55
2023/01/15 05:16:08;;;;;;;39.63;4.22;;;;;;;12.79;100.00;96393.75;4992859;28;20037;-54
2023/01/15 05:18:34;;;;;;;38.78;3.78;;;;;;;12.37;100.00;96377.88;4993287;28;20891;-55
2023/01/15 05:20:59;;;;;;;42.20;4.10;;;;;;;12.43;100.00;96381.19;4991891;28;20041;-55
2023/01/15 05:23:25;;;;;;;38.17;4.18;;;;;;;12.27;100.00;96371.31;4992543;28;20033;-54
2023/01/15 05:25:50;;;;;;;57.33;5.35;;;;;;;12.24;100.00;96374.00;4991036;28;20511;-57
2023/01/15 05:28:15;;;;;;;40.47;3.90;;;;;;;12.02;100.00;96366.94;4993323;28;20120;-52
2023/01/15 05:30:40;;;;;;;44.28;3.95;;;;;;;12.32;100.00;96374.59;4992908;28;20042;-52
2023/01/15 05:33:06;;;;;;;52.53;4.68;;;;;;;12.49;100.00;96365.31;4990641;28;20040;-55
2023/01/15 05:35:31;;;;;;;44.63;4.60;;;;;;;12.97;100.00;96375.69;4992616;28;20169;-53
2023/01/15 05:37:56;;;;;;;44.20;4.30;;;;;;;12.80;100.00;96365.91;4991730;28;20050;-53
2023/01/15 05:40:22;;;;;;;39.58;4.13;;;;;;;12.44;100.00;96373.28;4990954;28;20997;-53
2023/01/15 05:42:47;;;;;;;41.80;3.97;;;;;;;12.88;100.00;96369.06;4992184;28;20112;-53
2023/01/15 05:45:12;;;;;;;39.33;3.97;;;;;;;12.92;100.00;96362.78;4991395;28;20061;-56
2023/01/15 05:47:38;;;;;;;35.33;3.65;;;;;;;12.92;100.00;96372.41;4990764;28;20116;-53
2023/01/15 05:50:03;;;;;;;53.47;5.20;;;;;;;12.80;100.00;96365.91;4992712;28;20044;-53
2023/01/15 05:52:29;;;;;;;37.22;3.85;;;;;;;12.47;100.00;96361.91;4991303;28;20038;-53
2023/01/15 05:54:54;;;;;;;34.95;3.60;;;;;;;12.83;100.00;96363.16;4991751;28;20121;-53
2023/01/15 05:57:19;;;;;;;44.55;4.60;;;;;;;13.04;100.00;96360.63;4991569;28;20030;-53
2023/01/15 05:59:46;;;;;;;59.75;5.60;;;;;;;13.06;100.00;96362.25;4993484;28;20030;-54
2023/01/15 06:02:11;;;;;;;50.35;5.00;;;;;;;13.28;100.00;96364.88;4993512;28;20045;-54
2023/01/15 06:04:36;;;;;;;36.03;3.83;;;;;;;13.26;100.00;96361.47;4992594;28;20058;-54
2023/01/15 06:07:02;;;;;;;43.17;4.30;;;;;;;12.92;100.00;96362.78;4989705;28;20129;-54
2023/01/15 06:09:28;;;;;;;53.28;5.05;;;;;;;12.86;100.00;96355.22;4993294;28;20437;-55
2023/01/15 06:11:55;;;;;;;36.80;3.92;;;;;;;13.08;100.00;96350.03;4992531;28;20034;-56
2023/01/15 06:14:20;;;;;;;52.85;5.18;;;;;;;13.21;100.00;96355.59;4991741;28;20050;-54
2023/01/15 06:16:45;;;;;;;39.28;4.13;;;;;;;13.04;100.00;96358.03;4992334;28;20038;-54
2023/01/15 06:19:12;;;;;;;34.88;3.78;;;;;;;13.23;100.00;96348.56;4993648;28;20456;-54
2023/01/15 06:21:38;;;;;;;45.83;4.43;;;;;;;13.13;100.00;96342.84;4989786;28;20668;-54
2023/01/15 06:24:04;;;;;;;41.55;3.95;;;;;;;13.12;100.00;96349.00;4991329;28;20494;-54
2023/01/15 06:26:30;;;;;;;54.10;5.35;;;;;;;13.25;100.00;96351.09;4991769;28;20026;-56
2023/01/15 06:28:55;;;;;;;40.20;4.20;;;;;;;12.85;100.00;96350.91;4993148;28;20070;-55
2023/01/15 06:31:22;;;;;;;42.25;4.50;;;;;;;12.52;100.00;96351.28;4990416;28;20065;-54
2023/01/15 06:33:48;;;;;;;50.92;4.70;;;;;;;12.29;100.00;96353.00;4990565;28;20029;-54
2023/01/15 06:36:20;;;;;;;45.67;4.53;;;;;;;12.29;100.00;96348.63;4990062;28;20061;-53
2023/01/15 06:38:46;;;;;;;;;;;;;;;12.09;100.00;96347.59;4992184;28;20033;-52
2023/01/15 06:49:29;;;;;;;46.55;4.30;;;;;;;12.04;100.00;96385.97;4991859;28;20060;-55
2023/01/15 06:51:55;;;;;;;41.10;4.57;;;;;;;12.33;100.00;96418.00;4992154;28;20049;-53
2023/01/15 06:54:20;;;;;;;42.63;4.70;;;;;;;12.45;100.00;96426.28;4992937;28;20019;-53
2023/01/15 06:56:46;;;;;;;44.20;4.63;;;;;;;12.86;100.00;96444.78;4989749;28;20113;-54
2023/01/15 06:59:11;;;;;;;45.03;4.45;;;;;;;13.03;100.00;96448.53;4988542;28;20030;-54
2023/01/15 07:01:36;;;;;;;36.72;4.00;;;;;;;12.91;100.00;96467.25;4989871;28;20041;-53
2023/01/15 07:04:02;;;;;;;50.85;4.88;;;;;;;12.27;100.00;96461.66;4991340;28;20033;-56
2023/01/15 07:06:28;;;;;;;45.67;4.43;;;;;;;11.67;100.00;96465.34;4992518;28;20062;-56
2023/01/15 07:08:53;;;;;;;58.08;5.57;;;;;;;12.16;100.00;96456.81;4990238;28;20037;-54
2023/01/15 07:11:18;;;;;;;41.42;4.28;;;;;;;11.71;100.00;96465.22;4991106;28;20033;-55
2023/01/15 07:13:44;;;;;;;38.65;3.95;;;;;;;11.64;100.00;96468.91;4991513;28;20127;-54
2023/01/15 07:16:25;;;;;;;50.58;4.72;;;;;;;11.04;100.00;96467.28;4989781;28;20125;-54
2023/01/15 07:18:51;;;;;;;37.92;3.95;;;;;;;10.89;100.00;96480.72;4989550;28;20040;-55
2023/01/15 07:21:17;;;;;;;55.13;5.30;;;;;;;11.15;100.00;96485.16;4990117;28;20046;-53
2023/01/15 07:23:42;;;;;;;36.92;4.05;;;;;;;10.74;100.00;96488.06;4993346;28;20328;-55
2023/01/15 07:26:07;;;;;;;44.28;4.28;;;;;;;10.71;100.00;96487.28;4990754;28;20113;-54
2023/01/15 07:28:33;;;;;;;54.65;4.88;;;;;;;10.60;100.00;96497.97;4990940;28;20751;-53
2023/01/15 07:30:58;;;;;;;49.65;4.55;;;;;;;10.58;100.00;96482.41;4989865;28;20092;-53
2023/01/15 07:33:23;;;;;;;54.70;5.13;;;;;;;10.39;100.00;96488.09;4990953;28;20018;-56
2023/01/15 07:35:49;;;;;;;49.30;4.78;;;;;;;10.18;100.00;96499.91;4990347;28;20081;-54
2023/01/15 07:38:14;;;;;;;37.55;3.78;;;;;;;10.12;100.00;96519.13;4989201;28;20076;-54
2023/01/15 07:40:39;;;;;;;53.85;4.63;;;;;;;10.27;100.00;96533.47;4989933;28;20038;-54
2023/01/15 07:51:16;;;;;;;48.38;4.43;;;;;;;9.59;100.00;96522.09;4993691;28;20072;-56
2023/01/15 07:53:42;;;;;;;54.60;4.82;;;;;;;10.26;100.00;96539.56;4995554;28;20816;-56
2023/01/15 07:56:07;;;;;;;43.25;4.03;;;;;;;10.29;100.00;96557.66;4993808;28;20070;-56
2023/01/15 07:58:33;;;;;;;38.47;4.18;;;;;;;9.87;100.00;96565.59;4995183;28;20122;-54
2023/01/15 08:00:58;;;;;;;50.22;4.70;;;;;;;10.02;100.00;96572.16;4992843;28;20041;-54
2023/01/15 08:03:24;;;;;;;33.55;3.22;;;;;;;10.25;100.00;96583.75;4988753;28;20637;-54
2023/01/15 08:05:49;;;;;;;51.90;4.65;;;;;;;9.92;100.00;96589.72;4993317;28;20056;-54
2023/01/15 08:08:16;;;;;;;39.80;3.88;;;;;;;9.14;100.00;96593.13;4995555;28;20026;-54
2023/01/15 08:15:11;;;;;;;44.25;4.10;;;;;;;9.72;100.00;96609.19;4996332;28;20034;-54
2023/01/15 08:16:11;;;;;;;40.22;3.72;;;;;;;9.50;100.00;96622.66;4995536;28;20108;-54
2023/01/15 08:18:36;;;;;;;35.45;3.75;;;;;;;9.47;100.00;96627.06;4994363;28;20543;-53
2023/01/15 08:21:02;;;;;;;44.58;4.38;;;;;;;10.21;100.00;96631.50;4994039;28;20053;-53
2023/01/15 08:23:27;;;;;;;40.78;3.97;;;;;;;9.69;100.00;96634.38;4995666;28;20037;-54
2023/01/15 08:25:53;;;;;;;35.35;3.70;;;;;;;8.70;100.00;96653.56;4994916;28;20038;-54
2023/01/15 08:28:18;;;;;;;62.95;5.43;;;;;;;9.13;100.00;96657.09;4997119;28;20912;-54
2023/01/15 08:30:43;;;;;;;52.30;4.80;;;;;;;9.44;100.00;96660.84;4994577;28;20711;-53
2023/01/15 08:33:09;;;;;;;40.42;3.80;;;;;;;9.28;100.00;96668.91;4994862;28;20027;-54
2023/01/15 08:35:34;;;;;;;43.08;4.10;;;;;;;9.39;100.00;96673.91;4991788;28;20546;-55
2023/01/15 08:38:06;;;;;;;47.65;4.30;;;;;;;9.43;100.00;96672.94;4993698;28;20593;-55
2023/01/15 08:40:32;;;;;;;36.50;3.72;;;;;;;9.24;100.00;96677.66;4993852;28;20101;-52
2023/01/15 08:42:58;;;;;;;38.00;3.55;;;;;;;9.75;100.00;96678.38;4995619;28;20081;-53
2023/01/15 08:45:23;;;;;;;42.70;4.13;;;;;;;9.48;100.00;96686.72;4994944;28;20061;-55
2023/01/15 08:47:48;;;;;;;39.55;3.70;;;;;;;8.92;100.00;96694.66;4995619;28;20017;-52
2023/01/15 08:50:14;;;;;;;39.35;3.65;;;;;;;8.90;100.00;96699.88;4994683;28;20030;-55
2023/01/15 08:52:40;;;;;;;35.45;3.35;;;;;;;9.12;100.00;96704.69;4994795;28;20131;-52
2023/01/15 08:55:06;;;;;;;37.67;3.70;;;;;;;8.98;100.00;96718.75;4996087;28;20751;-55
2023/01/15 08:57:32;;;;;;;56.63;5.05;;;;;;;9.29;100.00;96704.38;4996119;28;20026;-53
2023/01/15 08:59:57;;;;;;;49.13;4.70;;;;;;;9.33;100.00;96715.53;4995083;28;20180;-53
2023/01/15 09:02:22;;;;;;;40.72;4.00;;;;;;;8.51;100.00;96718.63;4994114;28;20060;-53
2023/01/15 09:04:48;;;;;;;39.88;3.58;;;;;;;8.79;100.00;96723.41;4996265;28;20175;-55
2023/01/15 09:07:13;;;;;;;43.40;3.88;;;;;;;8.89;100.00;96712.88;4983901;28;20034;-53
2023/01/15 09:09:39;;;;;;;63.33;5.38;;;;;;;8.62;100.00;96728.00;4992649;28;20026;-54
2023/01/15 09:12:04;;;;;;;43.03;4.05;;;;;;;8.51;100.00;96735.91;4994711;28;20034;-55
2023/01/15 09:14:29;;;;;;;44.15;4.05;;;;;;;7.89;100.00;96735.91;4996933;28;20031;-54
2023/01/15 09:16:56;;;;;;;51.78;4.45;;;;;;;8.03;100.00;96740.03;4993583;28;20873;-53
2023/01/15 09:19:21;;;;;;;45.25;4.05;;;;;;;7.69;100.00;96738.75;4998380;28;20018;-53
2023/01/15 09:21:47;;;;;;;59.85;5.13;;;;;;;7.74;100.00;96736.09;4994442;28;20046;-53
2023/01/15 09:24:12;;;;;;;43.70;3.80;;;;;;;7.73;100.00;96749.91;4995837;28;20038;-55
2023/01/15 09:26:39;;;;;;;38.30;3.65;;;;;;;7.90;100.00;96760.03;4992627;28;20037;-56
2023/01/15 09:29:07;;;;;;;47.25;4.13;;;;;;;7.83;100.00;96764.44;4997287;28;20130;-54
2023/01/15 09:31:33;;;;;;;51.95;4.47;;;;;;;9.44;100.00;96755.13;4991543;28;20045;-53
2023/01/15 09:33:58;;;;;;;50.13;4.88;;;;;;;11.56;100.00;96750.38;4991914;28;20026;-53
2023/01/15 09:36:33;;;;;;;43.35;4.63;;;;;;;11.66;100.00;96758.75;4995738;28;20534;-56
2023/01/15 09:39:00;;;;;;;53.55;5.47;;;;;;;12.84;100.00;96762.28;4993224;28;20033;-53
2023/01/15 09:44:34;;;;;;;35.15;4.13;;;;;;;13.67;100.00;96757.78;4994090;28;20039;-54
2023/01/15 09:47:10;;;;;;;49.10;5.22;;;;;;;14.35;100.00;96760.56;4993898;28;20034;-54
2023/01/15 09:50:06;;;;;;;58.95;5.55;;;;;;;11.51;100.00;96778.25;4991771;28;20037;-55
2023/01/15 09:53:02;;;;;;;37.53;3.95;;;;;;;10.79;100.00;96789.59;4991550;28;20826;-54
2023/01/15 09:55:34;;;;;;;40.92;4.22;;;;;;;10.10;100.00;96811.00;4991092;28;20039;-54
2023/01/15 09:58:04;;;;;;;42.38;4.70;;;;;;;9.87;100.00;96802.75;4993578;28;20026;-54
2023/01/15 10:00:37;;;;;;;50.03;4.90;;;;;;;8.94;100.00;96800.06;4990599;28;20037;-53
2023/01/15 10:03:09;;;;;;;53.92;5.68;;;;;;;8.56;100.00;96807.56;4986858;28;20782;-52
2023/01/15 10:05:41;;;;;;;46.57;4.63;;;;;;;9.30;100.00;96811.59;4986091;28;20186;-55
2023/01/15 10:08:26;;;;;;;44.95;4.35;;;;;;;9.08;100.00;96814.56;4991190;28;20030;-52
2023/01/15 10:11:19;;;;;;;48.88;4.10;;;;;;;8.83;100.00;96820.97;4990202;28;20551;-53
2023/01/15 10:14:10;;;;;;;51.97;4.70;;;;;;;8.91;100.00;96818.25;4990597;28;20030;-53
2023/01/15 10:16:35;;;;;;;76.15;6.47;;;;;;;9.28;100.00;96815.97;4988916;28;20405;-56
2023/01/15 10:19:02;;;;;;;58.42;5.47;;;;;;;9.34;100.00;96806.34;4992644;28;20105;-57
2023/01/15 10:21:50;;;;;;;71.50;6.40;;;;;;;9.15;100.00;96805.78;4990008;28;20038;-56
2023/01/15 10:24:35;;;;;;;64.43;5.28;;;;;;;9.08;100.00;96809.38;4991486;28;20113;-56
2023/01/15 10:27:11;;;;;;;34.70;3.33;;;;;;;8.51;100.00;96808.47;4989321;28;20864;-57
2023/01/15 10:30:05;;;;;;;69.35;5.85;;;;;;;8.91;100.00;96822.63;4991021;28;20128;-57
2023/01/15 10:32:53;;;;;;;63.83;5.35;;;;;;;9.27;100.00;96838.44;4988881;28;20422;-58
2023/01/15 10:35:27;;;;;;;43.22;3.83;;;;;;;9.10;100.00;96841.34;4988659;28;20665;-55
2023/01/15 10:38:14;;;;;;;55.67;5.05;;;;;;;8.88;100.00;96849.44;4990023;28;20503;-55
2023/01/15 10:41:04;;;;;;;47.75;4.43;;;;;;;8.93;100.00;96847.63;4975408;28;20038;-56
2023/01/15 10:43:41;;;;;;;34.92;3.33;;;;;;;8.31;100.00;96853.63;4993758;28;20037;-56
2023/01/15 10:46:18;;;;;;;59.90;5.22;;;;;;;8.14;100.00;96861.63;4991043;28;20042;-56
2023/01/15 10:48:55;;;;;;;66.28;5.57;;;;;;;7.98;100.00;96858.34;4987152;28;20022;-54
2023/01/15 10:51:36;;;;;;;48.53;4.38;;;;;;;8.69;100.00;96861.81;4989965;28;20137;-56
2023/01/15 10:54:30;;;;;;;56.08;5.13;;;;;;;8.11;100.00;96861.63;4994506;28;20032;-54
2023/01/15 10:57:33;;;;;;;69.63;5.82;;;;;;;8.36;100.00;96854.44;4990463;28;20037;-57
2023/01/15 11:00:00;;;;;;;45.70;4.53;;;;;;;8.02;100.00;96867.81;4990638;28;20137;-53
2023/01/15 11:02:37;;;;;;;33.78;3.72;;;;;;;8.02;100.00;96867.81;4991715;28;20053;-54
2023/01/15 11:05:03;;;;;;;71.93;5.68;;;;;;;7.92;100.00;96854.97;4988736;28;20018;-54
2023/01/15 11:07:41;;;;;;;52.63;4.80;;;;;;;7.74;100.00;96862.91;4989918;28;20046;-53
2023/01/15 11:10:12;;;;;;;67.32;5.57;;;;;;;7.95;100.00;96867.00;4992315;28;20022;-57
2023/01/15 11:20:59;;;;;;;39.63;3.67;;;;;;;8.48;100.00;96866.38;4994951;28;20096;-55
2023/01/15 11:23:24;;;;;;;49.78;4.95;;;;;;;8.36;100.00;96867.41;4993483;28;20125;-53
2023/01/15 11:25:55;;;;;;;43.40;4.28;;;;;;;8.39;100.00;96862.16;4993975;28;20036;-53
2023/01/15 11:28:39;;;;;;;77.88;6.95;;;;;;;8.13;100.00;96870.25;4994875;28;20396;-53
2023/01/15 11:31:05;;;;;;;35.83;4.03;;;;;;;7.63;100.00;96868.19;4992384;28;20077;-55
2023/01/15 11:33:31;;;;;;;48.88;5.35;;;;;;;7.86;100.00;96865.38;4992160;28;20517;-54
2023/01/15 11:35:59;;;;;;;35.95;4.20;;;;;;;7.50;100.00;96867.47;4995069;28;20042;-53
2023/01/15 11:38:30;;;;;;;52.67;4.68;;;;;;;7.64;100.00;96886.28;4995327;28;20036;-56
2023/01/15 11:40:56;;;;;;;43.00;4.00;;;;;;;7.52;100.00;96900.19;4994442;28;20046;-54
2023/01/15 11:50:42;;;;;;;36.47;4.00;;;;;;;7.78;100.00;96893.06;4994978;28;20738;-54
2023/01/15 11:52:01;;;;;;;38.47;3.88;;;;;;;7.55;100.00;96888.97;4994308;28;20038;-55
2023/01/15 11:54:31;;;;;;;45.90;4.47;;;;;;;7.58;100.00;96888.94;4992945;28;20429;-55
2023/01/15 11:56:57;;;;;;;42.33;4.22;;;;;;;7.71;100.00;96873.31;4993800;28;20050;-54
2023/01/15 11:59:24;;;;;;;51.65;4.85;;;;;;;7.45;100.00;96879.59;4993406;28;20404;-54
2023/01/15 12:01:58;;;;;;;64.05;5.50;;;;;;;7.47;100.00;96877.81;4992657;28;20054;-53
2023/01/15 12:04:33;;;;;;;71.32;5.82;;;;;;;7.67;100.00;96868.16;4992915;28;20021;-53
2023/01/15 12:06:59;;;;;;;50.92;4.85;;;;;;;7.71;100.00;96868.13;4992062;28;20080;-54
2023/01/15 12:09:50;;;;;;;48.85;4.72;;;;;;;7.75;100.00;96875.84;4994583;28;20785;-53
2023/01/15 12:12:43;;;;;;;59.67;5.05;;;;;;;8.56;100.00;96889.63;4992302;28;20144;-56
2023/01/15 12:15:18;;;;;;;54.78;5.20;;;;;;;8.16;100.00;96894.38;4992784;28;20033;-56
2023/01/15 12:18:01;;;;;;;54.75;4.93;;;;;;;10.63;100.00;96898.31;4989309;28;20100;-57